sensor_id;sensor_type;location;lat;lon;timestamp;temperature;humidity
66119;DHT22;52912;48.564;9.302;2023-08-01T00:00:29;19.09;82.63
66119;DHT22;52912;48.564;9.302;2023-08-01T00:02:54;19.06;82.28
66119;DHT22;52912;48.564;9.302;2023-08-01T00:05:21;19.02;82.50
66119;DHT22;52912;48.564;9.302;2023-08-01T00:07:47;18.99;83.53
66119;DHT22;52912;48.564;9.302;2023-08-01T00:10:12;19.05;82.98
66119;DHT22;52912;48.564;9.302;2023-08-01T00:12:38;18.99;83.70
66119;DHT22;52912;48.564;9.302;2023-08-01T00:15:04;18.95;83.77
66119;DHT22;52912;48.564;9.302;2023-08-01T00:17:30;18.89;84.26
66119;DHT22;52912;48.564;9.302;2023-08-01T00:19:55;18.81;84.63
66119;DHT22;52912;48.564;9.302;2023-08-01T00:22:22;18.81;87.40
66119;DHT22;52912;48.564;9.302;2023-08-01T00:24:47;18.68;87.70
66119;DHT22;52912;48.564;9.302;2023-08-01T00:27:13;18.65;89.80
66119;DHT22;52912;48.564;9.302;2023-08-01T00:29:38;18.43;88.61
66119;DHT22;52912;48.564;9.302;2023-08-01T00:32:05;18.36;87.70
66119;DHT22;52912;48.564;9.302;2023-08-01T00:34:30;18.36;86.62
66119;DHT22;52912;48.564;9.302;2023-08-01T00:36:56;18.43;85.99
66119;DHT22;52912;48.564;9.302;2023-08-01T00:39:23;18.46;85.73
66119;DHT22;52912;48.564;9.302;2023-08-01T00:41:48;18.56;85.61
66119;DHT22;52912;48.564;9.302;2023-08-01T00:44:14;18.57;85.34
66119;DHT22;52912;48.564;9.302;2023-08-01T00:46:39;18.58;84.89
66119;DHT22;52912;48.564;9.302;2023-08-01T00:49:05;18.60;84.46
66119;DHT22;52912;48.564;9.302;2023-08-01T00:51:31;18.63;84.14
66119;DHT22;52912;48.564;9.302;2023-08-01T00:53:57;18.69;83.58
66119;DHT22;52912;48.564;9.302;2023-08-01T00:56:24;18.82;82.58
66119;DHT22;52912;48.564;9.302;2023-08-01T00:58:49;18.95;82.29
66119;DHT22;52912;48.564;9.302;2023-08-01T01:01:15;19.02;82.34
66119;DHT22;52912;48.564;9.302;2023-08-01T01:03:41;19.26;80.52
66119;DHT22;52912;48.564;9.302;2023-08-01T01:06:13;19.40;79.86
66119;DHT22;52912;48.564;9.302;2023-08-01T01:08:39;19.47;79.75
66119;DHT22;52912;48.564;9.302;2023-08-01T01:11:05;19.58;79.43
66119;DHT22;52912;48.564;9.302;2023-08-01T01:13:31;19.64;79.02
66119;DHT22;52912;48.564;9.302;2023-08-01T01:15:57;19.82;78.20
66119;DHT22;52912;48.564;9.302;2023-08-01T01:18:22;19.86;78.24
66119;DHT22;52912;48.564;9.302;2023-08-01T01:20:49;19.86;78.55
66119;DHT22;52912;48.564;9.302;2023-08-01T01:23:16;19.86;78.73
66119;DHT22;52912;48.564;9.302;2023-08-01T01:25:42;19.83;78.74
66119;DHT22;52912;48.564;9.302;2023-08-01T01:28:08;19.88;78.72
66119;DHT22;52912;48.564;9.302;2023-08-01T01:30:35;19.88;78.57
66119;DHT22;52912;48.564;9.302;2023-08-01T01:33:01;19.92;78.45
66119;DHT22;52912;48.564;9.302;2023-08-01T01:35:26;19.93;80.06
66119;DHT22;52912;48.564;9.302;2023-08-01T01:37:53;19.91;80.02
66119;DHT22;52912;48.564;9.302;2023-08-01T01:40:19;19.78;80.45
66119;DHT22;52912;48.564;9.302;2023-08-01T01:42:44;19.65;81.12
66119;DHT22;52912;48.564;9.302;2023-08-01T01:45:10;19.64;80.66
66119;DHT22;52912;48.564;9.302;2023-08-01T01:47:35;19.53;81.54
66119;DHT22;52912;48.564;9.302;2023-08-01T01:50:01;19.54;81.27
66119;DHT22;52912;48.564;9.302;2023-08-01T01:52:26;19.55;81.37
66119;DHT22;52912;48.564;9.302;2023-08-01T01:54:53;19.68;80.40
66119;DHT22;52912;48.564;9.302;2023-08-01T01:57:19;19.70;80.24
66119;DHT22;52912;48.564;9.302;2023-08-01T01:59:44;19.75;79.99
66119;DHT22;52912;48.564;9.302;2023-08-01T02:02:09;19.70;80.37
66119;DHT22;52912;48.564;9.302;2023-08-01T02:04:35;19.64;81.14
66119;DHT22;52912;48.564;9.302;2023-08-01T02:07:00;19.70;80.51
66119;DHT22;52912;48.564;9.302;2023-08-01T02:09:26;19.72;80.79
66119;DHT22;52912;48.564;9.302;2023-08-01T02:11:52;19.72;80.29
66119;DHT22;52912;48.564;9.302;2023-08-01T02:14:18;19.77;79.87
66119;DHT22;52912;48.564;9.302;2023-08-01T02:16:43;19.83;80.31
66119;DHT22;52912;48.564;9.302;2023-08-01T02:19:09;19.88;79.52
66119;DHT22;52912;48.564;9.302;2023-08-01T02:21:34;19.86;79.93
66119;DHT22;52912;48.564;9.302;2023-08-01T02:24:00;19.88;79.30
66119;DHT22;52912;48.564;9.302;2023-08-01T02:26:25;19.92;79.03
66119;DHT22;52912;48.564;9.302;2023-08-01T02:28:52;19.93;79.09
66119;DHT22;52912;48.564;9.302;2023-08-01T02:31:17;19.93;78.93
66119;DHT22;52912;48.564;9.302;2023-08-01T02:33:43;20.05;78.63
66119;DHT22;52912;48.564;9.302;2023-08-01T02:36:08;20.05;78.44
66119;DHT22;52912;48.564;9.302;2023-08-01T02:38:34;20.06;78.47
66119;DHT22;52912;48.564;9.302;2023-08-01T02:40:59;20.15;78.15
66119;DHT22;52912;48.564;9.302;2023-08-01T02:43:25;20.15;78.35
66119;DHT22;52912;48.564;9.302;2023-08-01T02:45:51;20.13;78.29
66119;DHT22;52912;48.564;9.302;2023-08-01T02:48:17;20.10;78.46
66119;DHT22;52912;48.564;9.302;2023-08-01T02:50:42;20.12;78.51
66119;DHT22;52912;48.564;9.302;2023-08-01T02:53:08;20.09;78.71
66119;DHT22;52912;48.564;9.302;2023-08-01T02:55:33;20.09;78.58
66119;DHT22;52912;48.564;9.302;2023-08-01T02:57:59;20.08;79.04
66119;DHT22;52912;48.564;9.302;2023-08-01T03:00:24;20.06;78.73
66119;DHT22;52912;48.564;9.302;2023-08-01T03:02:51;20.12;78.87
66119;DHT22;52912;48.564;9.302;2023-08-01T03:05:16;20.08;78.84
66119;DHT22;52912;48.564;9.302;2023-08-01T03:07:42;20.08;78.79
66119;DHT22;52912;48.564;9.302;2023-08-01T03:10:08;20.04;79.12
66119;DHT22;52912;48.564;9.302;2023-08-01T03:12:34;20.10;78.78
66119;DHT22;52912;48.564;9.302;2023-08-01T03:14:59;20.13;78.71
66119;DHT22;52912;48.564;9.302;2023-08-01T03:17:25;20.08;79.06
66119;DHT22;52912;48.564;9.302;2023-08-01T03:19:52;20.06;79.03
66119;DHT22;52912;48.564;9.302;2023-08-01T03:22:17;20.10;78.57
66119;DHT22;52912;48.564;9.302;2023-08-01T03:24:43;20.12;78.45
66119;DHT22;52912;48.564;9.302;2023-08-01T03:27:08;20.12;78.48
66119;DHT22;52912;48.564;9.302;2023-08-01T03:29:34;20.16;78.26
66119;DHT22;52912;48.564;9.302;2023-08-01T08:55:15;17.55;94.25
66119;DHT22;52912;48.564;9.302;2023-08-01T08:57:41;17.58;94.17
66119;DHT22;52912;48.564;9.302;2023-08-01T09:00:07;17.67;93.74
66119;DHT22;52912;48.564;9.302;2023-08-01T09:08:07;17.67;94.48
66119;DHT22;52912;48.564;9.302;2023-08-01T09:10:37;17.61;94.16
66119;DHT22;52912;48.564;9.302;2023-08-01T09:13:03;17.66;94.32
66119;DHT22;52912;48.564;9.302;2023-08-01T09:15:29;17.70;94.61
66119;DHT22;52912;48.564;9.302;2023-08-01T09:17:55;17.71;93.52
66119;DHT22;52912;48.564;9.302;2023-08-01T09:20:20;17.71;93.63
66119;DHT22;52912;48.564;9.302;2023-08-01T09:22:46;17.88;94.17
66119;DHT22;52912;48.564;9.302;2023-08-01T09:25:12;17.79;93.80
66119;DHT22;52912;48.564;9.302;2023-08-01T09:27:39;17.82;93.99
66119;DHT22;52912;48.564;9.302;2023-08-01T09:30:07;17.81;93.71
66119;DHT22;52912;48.564;9.302;2023-08-01T09:32:33;18.02;93.64
66119;DHT22;52912;48.564;9.302;2023-08-01T09:34:59;18.47;93.87
66119;DHT22;52912;48.564;9.302;2023-08-01T09:37:24;18.54;92.65
66119;DHT22;52912;48.564;9.302;2023-08-01T09:39:53;18.72;92.57
66119;DHT22;52912;48.564;9.302;2023-08-01T09:42:19;18.63;92.19
66119;DHT22;52912;48.564;9.302;2023-08-01T09:44:46;18.63;93.13
66119;DHT22;52912;48.564;9.302;2023-08-01T09:47:11;18.54;91.83
66119;DHT22;52912;48.564;9.302;2023-08-01T09:49:47;18.37;92.53
66119;DHT22;52912;48.564;9.302;2023-08-01T09:52:13;18.43;93.42
66119;DHT22;52912;48.564;9.302;2023-08-01T09:54:38;18.41;93.06
66119;DHT22;52912;48.564;9.302;2023-08-01T09:57:05;18.41;94.00
66119;DHT22;52912;48.564;9.302;2023-08-01T09:59:33;18.39;93.85
66119;DHT22;52912;48.564;9.302;2023-08-01T10:02:01;18.28;93.65
66119;DHT22;52912;48.564;9.302;2023-08-01T10:04:30;18.36;94.93
66119;DHT22;52912;48.564;9.302;2023-08-01T10:06:58;18.26;94.23
66119;DHT22;52912;48.564;9.302;2023-08-01T10:09:24;18.28;95.14
66119;DHT22;52912;48.564;9.302;2023-08-01T10:11:50;18.29;93.89
66119;DHT22;52912;48.564;9.302;2023-08-01T10:14:16;18.30;93.92
66119;DHT22;52912;48.564;9.302;2023-08-01T10:16:42;18.29;93.56
66119;DHT22;52912;48.564;9.302;2023-08-01T10:19:09;18.34;93.69
66119;DHT22;52912;48.564;9.302;2023-08-01T10:21:35;18.36;94.18
66119;DHT22;52912;48.564;9.302;2023-08-01T10:24:03;18.28;93.91
66119;DHT22;52912;48.564;9.302;2023-08-01T10:26:29;18.33;94.64
66119;DHT22;52912;48.564;9.302;2023-08-01T10:28:55;18.20;94.02
66119;DHT22;52912;48.564;9.302;2023-08-01T10:31:20;18.23;94.36
66119;DHT22;52912;48.564;9.302;2023-08-01T10:33:47;18.26;94.30
66119;DHT22;52912;48.564;9.302;2023-08-01T10:36:16;18.17;94.96
66119;DHT22;52912;48.564;9.302;2023-08-01T10:38:46;18.03;94.87
66119;DHT22;52912;48.564;9.302;2023-08-01T10:41:18;18.02;94.92
66119;DHT22;52912;48.564;9.302;2023-08-01T10:43:44;17.91;95.37
66119;DHT22;52912;48.564;9.302;2023-08-01T10:46:09;17.92;95.42
66119;DHT22;52912;48.564;9.302;2023-08-01T10:48:35;18.09;95.21
66119;DHT22;52912;48.564;9.302;2023-08-01T10:51:00;18.37;94.28
66119;DHT22;52912;48.564;9.302;2023-08-01T10:53:37;18.76;94.43
66119;DHT22;52912;48.564;9.302;2023-08-01T10:56:03;19.12;92.60
66119;DHT22;52912;48.564;9.302;2023-08-01T10:58:29;19.54;90.93
66119;DHT22;52912;48.564;9.302;2023-08-01T11:00:57;19.78;91.35
66119;DHT22;52912;48.564;9.302;2023-08-01T11:03:33;19.72;91.21
66119;DHT22;52912;48.564;9.302;2023-08-01T11:05:59;19.65;91.91
66119;DHT22;52912;48.564;9.302;2023-08-01T11:08:35;19.54;91.44
66119;DHT22;52912;48.564;9.302;2023-08-01T11:11:01;19.15;91.20
66119;DHT22;52912;48.564;9.302;2023-08-01T11:13:26;19.34;91.03
66119;DHT22;52912;48.564;9.302;2023-08-01T11:15:52;19.33;90.31
66119;DHT22;52912;48.564;9.302;2023-08-01T11:18:17;19.40;90.58
66119;DHT22;52912;48.564;9.302;2023-08-01T11:20:43;19.51;90.04
66119;DHT22;52912;48.564;9.302;2023-08-01T11:23:09;19.95;89.71
66119;DHT22;52912;48.564;9.302;2023-08-01T11:25:38;20.09;88.49
66119;DHT22;52912;48.564;9.302;2023-08-01T11:28:06;20.17;87.73
66119;DHT22;52912;48.564;9.302;2023-08-01T11:30:32;20.88;87.09
66119;DHT22;52912;48.564;9.302;2023-08-01T11:32:58;20.53;87.43
66119;DHT22;52912;48.564;9.302;2023-08-01T11:35:23;20.60;87.60
66119;DHT22;52912;48.564;9.302;2023-08-01T11:37:50;20.53;86.96
66119;DHT22;52912;48.564;9.302;2023-08-01T11:40:16;20.50;86.94
66119;DHT22;52912;48.564;9.302;2023-08-01T11:42:43;20.30;87.78
66119;DHT22;52912;48.564;9.302;2023-08-01T11:45:09;20.36;86.94
66119;DHT22;52912;48.564;9.302;2023-08-01T11:47:35;20.27;87.49
66119;DHT22;52912;48.564;9.302;2023-08-01T11:50:01;20.22;87.43
66119;DHT22;52912;48.564;9.302;2023-08-01T11:52:27;20.37;87.84
66119;DHT22;52912;48.564;9.302;2023-08-01T11:54:53;21.29;85.53
66119;DHT22;52912;48.564;9.302;2023-08-01T11:57:18;21.58;82.58
66119;DHT22;52912;48.564;9.302;2023-08-01T11:59:49;21.99;80.33
66119;DHT22;52912;48.564;9.302;2023-08-01T12:02:22;22.05;79.40
66119;DHT22;52912;48.564;9.302;2023-08-01T12:04:48;22.56;79.66
66119;DHT22;52912;48.564;9.302;2023-08-01T12:07:14;22.29;79.03
66119;DHT22;52912;48.564;9.302;2023-08-01T12:09:39;22.14;79.13
66119;DHT22;52912;48.564;9.302;2023-08-01T12:12:06;21.82;76.93
66119;DHT22;52912;48.564;9.302;2023-08-01T12:14:31;21.71;76.98
66119;DHT22;52912;48.564;9.302;2023-08-01T12:16:58;21.75;75.57
66119;DHT22;52912;48.564;9.302;2023-08-01T12:19:23;21.60;75.28
66119;DHT22;52912;48.564;9.302;2023-08-01T12:21:49;21.84;74.46
66119;DHT22;52912;48.564;9.302;2023-08-01T12:24:15;21.79;72.28
66119;DHT22;52912;48.564;9.302;2023-08-01T12:26:40;21.58;74.62
66119;DHT22;52912;48.564;9.302;2023-08-01T12:29:06;21.64;73.92
66119;DHT22;52912;48.564;9.302;2023-08-01T12:31:31;21.60;75.14
66119;DHT22;52912;48.564;9.302;2023-08-01T12:33:58;22.82;72.47
66119;DHT22;52912;48.564;9.302;2023-08-01T12:36:24;22.57;72.85
66119;DHT22;52912;48.564;9.302;2023-08-01T12:38:49;23.58;70.77
66119;DHT22;52912;48.564;9.302;2023-08-01T12:41:15;24.17;68.97
66119;DHT22;52912;48.564;9.302;2023-08-01T12:43:41;24.32;67.27
66119;DHT22;52912;48.564;9.302;2023-08-01T12:46:06;24.92;67.13
66119;DHT22;52912;48.564;9.302;2023-08-01T12:48:32;24.04;65.90
66119;DHT22;52912;48.564;9.302;2023-08-01T12:50:58;23.61;66.98
66119;DHT22;52912;48.564;9.302;2023-08-01T12:53:24;23.08;68.80
66119;DHT22;52912;48.564;9.302;2023-08-01T12:55:51;23.23;68.82
66119;DHT22;52912;48.564;9.302;2023-08-01T12:58:16;23.51;68.24
66119;DHT22;52912;48.564;9.302;2023-08-01T13:00:43;22.95;68.63
66119;DHT22;52912;48.564;9.302;2023-08-01T13:03:09;23.23;68.19
66119;DHT22;52912;48.564;9.302;2023-08-01T13:05:35;24.29;67.18
66119;DHT22;52912;48.564;9.302;2023-08-01T13:08:03;24.65;65.11
66119;DHT22;52912;48.564;9.302;2023-08-01T13:10:29;24.81;64.13
66119;DHT22;52912;48.564;9.302;2023-08-01T13:12:55;25.06;64.42
66119;DHT22;52912;48.564;9.302;2023-08-01T13:15:20;25.44;62.41
66119;DHT22;52912;48.564;9.302;2023-08-01T13:17:46;25.18;62.56
66119;DHT22;52912;48.564;9.302;2023-08-01T13:20:11;25.11;61.08
66119;DHT22;52912;48.564;9.302;2023-08-01T13:22:37;25.44;61.47
66119;DHT22;52912;48.564;9.302;2023-08-01T13:25:04;25.46;60.99
66119;DHT22;52912;48.564;9.302;2023-08-01T13:27:30;25.43;61.26
66119;DHT22;52912;48.564;9.302;2023-08-01T13:29:55;25.67;61.09
66119;DHT22;52912;48.564;9.302;2023-08-01T13:32:20;24.56;62.97
66119;DHT22;52912;48.564;9.302;2023-08-01T13:34:46;25.02;61.64
66119;DHT22;52912;48.564;9.302;2023-08-01T13:37:11;23.85;63.46
66119;DHT22;52912;48.564;9.302;2023-08-01T13:39:37;24.95;61.38
66119;DHT22;52912;48.564;9.302;2023-08-01T13:42:04;25.18;61.03
66119;DHT22;52912;48.564;9.302;2023-08-01T13:44:30;25.32;60.61
66119;DHT22;52912;48.564;9.302;2023-08-01T13:46:55;24.68;61.37
66119;DHT22;52912;48.564;9.302;2023-08-01T13:49:21;25.47;59.34
66119;DHT22;52912;48.564;9.302;2023-08-01T13:51:46;25.37;60.38
66119;DHT22;52912;48.564;9.302;2023-08-01T13:54:11;25.89;60.62
66119;DHT22;52912;48.564;9.302;2023-08-01T13:56:37;26.56;60.16
66119;DHT22;52912;48.564;9.302;2023-08-01T13:59:04;26.53;58.84
66119;DHT22;52912;48.564;9.302;2023-08-01T14:01:30;25.80;58.79
66119;DHT22;52912;48.564;9.302;2023-08-01T14:03:55;25.92;59.15
66119;DHT22;52912;48.564;9.302;2023-08-01T14:06:21;26.40;58.53
66119;DHT22;52912;48.564;9.302;2023-08-01T14:08:46;25.43;58.07
66119;DHT22;52912;48.564;9.302;2023-08-01T14:11:11;25.53;57.53
66119;DHT22;52912;48.564;9.302;2023-08-01T14:13:37;25.99;57.90
66119;DHT22;52912;48.564;9.302;2023-08-01T14:16:04;25.53;56.26
66119;DHT22;52912;48.564;9.302;2023-08-01T14:18:29;25.92;56.30
66119;DHT22;52912;48.564;9.302;2023-08-01T14:20:55;26.01;56.24
66119;DHT22;52912;48.564;9.302;2023-08-01T14:23:21;26.11;55.53
66119;DHT22;52912;48.564;9.302;2023-08-01T14:25:47;26.26;55.88
66119;DHT22;52912;48.564;9.302;2023-08-01T14:28:13;26.91;55.25
66119;DHT22;52912;48.564;9.302;2023-08-01T14:30:38;26.30;55.61
66119;DHT22;52912;48.564;9.302;2023-08-01T14:33:06;25.82;57.13
66119;DHT22;52912;48.564;9.302;2023-08-01T14:35:33;26.26;56.61
66119;DHT22;52912;48.564;9.302;2023-08-01T14:37:58;26.28;56.96
66119;DHT22;52912;48.564;9.302;2023-08-01T14:40:25;25.51;57.30
66119;DHT22;52912;48.564;9.302;2023-08-01T14:42:50;24.80;58.57
66119;DHT22;52912;48.564;9.302;2023-08-01T14:45:16;24.57;59.82
66119;DHT22;52912;48.564;9.302;2023-08-01T14:47:42;24.43;60.20
66119;DHT22;52912;48.564;9.302;2023-08-01T14:50:09;24.59;61.20
66119;DHT22;52912;48.564;9.302;2023-08-01T14:52:35;24.96;59.40
66119;DHT22;52912;48.564;9.302;2023-08-01T14:55:00;25.18;59.68
66119;DHT22;52912;48.564;9.302;2023-08-01T14:57:26;25.66;57.93
66119;DHT22;52912;48.564;9.302;2023-08-01T14:59:51;25.47;57.68
66119;DHT22;52912;48.564;9.302;2023-08-01T15:02:17;25.96;57.31
66119;DHT22;52912;48.564;9.302;2023-08-01T15:04:42;26.58;56.74
66119;DHT22;52912;48.564;9.302;2023-08-01T15:07:09;26.74;55.96
66119;DHT22;52912;48.564;9.302;2023-08-01T15:09:36;26.61;55.33
66119;DHT22;52912;48.564;9.302;2023-08-01T15:12:02;26.47;56.34
66119;DHT22;52912;48.564;9.302;2023-08-01T15:14:27;26.37;56.71
66119;DHT22;52912;48.564;9.302;2023-08-01T15:16:53;25.87;57.56
66119;DHT22;52912;48.564;9.302;2023-08-01T15:19:18;25.60;58.21
66119;DHT22;52912;48.564;9.302;2023-08-01T15:21:44;25.67;57.44
66119;DHT22;52912;48.564;9.302;2023-08-01T15:24:11;25.23;58.24
66119;DHT22;52912;48.564;9.302;2023-08-01T15:26:37;24.68;59.49
66119;DHT22;52912;48.564;9.302;2023-08-01T15:29:02;25.34;59.17
66119;DHT22;52912;48.564;9.302;2023-08-01T15:31:28;25.92;57.64
66119;DHT22;52912;48.564;9.302;2023-08-01T15:33:53;26.02;58.33
66119;DHT22;52912;48.564;9.302;2023-08-01T15:36:25;26.53;57.61
66119;DHT22;52912;48.564;9.302;2023-08-01T15:38:51;26.71;58.04
66119;DHT22;52912;48.564;9.302;2023-08-01T15:41:18;26.04;58.50
66119;DHT22;52912;48.564;9.302;2023-08-01T15:43:43;25.68;60.15
66119;DHT22;52912;48.564;9.302;2023-08-01T15:46:09;25.70;59.03
66119;DHT22;52912;48.564;9.302;2023-08-01T15:48:35;25.96;58.30
66119;DHT22;52912;48.564;9.302;2023-08-01T15:51:02;25.82;58.39
66119;DHT22;52912;48.564;9.302;2023-08-01T15:53:28;25.25;59.17
66119;DHT22;52912;48.564;9.302;2023-08-01T15:55:54;25.29;59.99
66119;DHT22;52912;48.564;9.302;2023-08-01T15:58:21;25.39;58.76
66119;DHT22;52912;48.564;9.302;2023-08-01T16:00:47;25.66;59.34
66119;DHT22;52912;48.564;9.302;2023-08-01T16:03:12;26.11;58.80
66119;DHT22;52912;48.564;9.302;2023-08-01T16:05:37;26.16;58.51
66119;DHT22;52912;48.564;9.302;2023-08-01T16:08:04;26.64;57.95
66119;DHT22;52912;48.564;9.302;2023-08-01T16:10:30;26.25;57.96
66119;DHT22;52912;48.564;9.302;2023-08-01T16:12:55;26.13;57.44
66119;DHT22;52912;48.564;9.302;2023-08-01T16:15:22;26.12;57.79
66119;DHT22;52912;48.564;9.302;2023-08-01T16:17:47;25.78;58.05
66119;DHT22;52912;48.564;9.302;2023-08-01T16:20:13;25.63;58.24
66119;DHT22;52912;48.564;9.302;2023-08-01T16:22:38;25.89;58.16
66119;DHT22;52912;48.564;9.302;2023-08-01T16:25:05;25.70;58.06
66119;DHT22;52912;48.564;9.302;2023-08-01T16:27:30;25.51;58.60
66119;DHT22;52912;48.564;9.302;2023-08-01T16:29:56;25.53;58.06
66119;DHT22;52912;48.564;9.302;2023-08-01T16:32:22;25.30;58.28
66119;DHT22;52912;48.564;9.302;2023-08-01T16:34:48;24.63;59.02
66119;DHT22;52912;48.564;9.302;2023-08-01T16:37:13;24.78;58.70
66119;DHT22;52912;48.564;9.302;2023-08-01T16:39:39;24.57;58.89
66119;DHT22;52912;48.564;9.302;2023-08-01T16:42:05;24.47;59.19
66119;DHT22;52912;48.564;9.302;2023-08-01T16:44:30;24.53;58.84
66119;DHT22;52912;48.564;9.302;2023-08-01T16:46:56;24.70;58.27
66119;DHT22;52912;48.564;9.302;2023-08-01T16:49:22;24.40;58.27
66119;DHT22;52912;48.564;9.302;2023-08-01T16:51:48;24.27;58.48
66119;DHT22;52912;48.564;9.302;2023-08-01T16:54:13;24.19;59.18
66119;DHT22;52912;48.564;9.302;2023-08-01T16:56:39;23.99;58.73
66119;DHT22;52912;48.564;9.302;2023-08-01T16:59:04;23.89;59.65
66119;DHT22;52912;48.564;9.302;2023-08-01T17:01:30;23.71;60.40
66119;DHT22;52912;48.564;9.302;2023-08-01T17:03:57;23.42;61.19
66119;DHT22;52912;48.564;9.302;2023-08-01T17:06:23;23.20;61.23
66119;DHT22;52912;48.564;9.302;2023-08-01T17:08:49;23.16;61.95
66119;DHT22;52912;48.564;9.302;2023-08-01T17:11:14;23.02;62.18
66119;DHT22;52912;48.564;9.302;2023-08-01T17:13:40;22.98;62.44
66119;DHT22;52912;48.564;9.302;2023-08-01T17:16:05;22.90;62.68
66119;DHT22;52912;48.564;9.302;2023-08-01T17:18:31;22.60;62.89
66119;DHT22;52912;48.564;9.302;2023-08-01T17:20:56;22.58;63.38
66119;DHT22;52912;48.564;9.302;2023-08-01T17:23:23;22.57;63.69
66119;DHT22;52912;48.564;9.302;2023-08-01T17:25:48;22.40;63.00
66119;DHT22;52912;48.564;9.302;2023-08-01T17:28:14;22.26;62.78
66119;DHT22;52912;48.564;9.302;2023-08-01T17:30:40;22.16;63.57
66119;DHT22;52912;48.564;9.302;2023-08-01T17:33:05;22.14;63.69
66119;DHT22;52912;48.564;9.302;2023-08-01T17:35:31;22.02;63.68
66119;DHT22;52912;48.564;9.302;2023-08-01T17:37:56;21.94;63.71
66119;DHT22;52912;48.564;9.302;2023-08-01T17:40:23;21.92;64.17
66119;DHT22;52912;48.564;9.302;2023-08-01T17:42:48;21.95;64.37
66119;DHT22;52912;48.564;9.302;2023-08-01T17:45:14;21.81;64.61
66119;DHT22;52912;48.564;9.302;2023-08-01T17:47:40;21.81;63.60
66119;DHT22;52912;48.564;9.302;2023-08-01T17:50:06;21.62;63.59
66119;DHT22;52912;48.564;9.302;2023-08-01T17:52:32;21.61;63.76
66119;DHT22;52912;48.564;9.302;2023-08-01T17:54:57;21.47;63.98
66119;DHT22;52912;48.564;9.302;2023-08-01T17:57:24;21.54;64.28
66119;DHT22;52912;48.564;9.302;2023-08-01T17:59:50;21.33;64.81
66119;DHT22;52912;48.564;9.302;2023-08-01T18:02:15;21.36;64.82
66119;DHT22;52912;48.564;9.302;2023-08-01T18:04:41;21.30;65.30
66119;DHT22;52912;48.564;9.302;2023-08-01T18:07:07;21.22;65.10
66119;DHT22;52912;48.564;9.302;2023-08-01T18:09:32;21.16;65.26
66119;DHT22;52912;48.564;9.302;2023-08-01T18:11:58;21.09;65.57
66119;DHT22;52912;48.564;9.302;2023-08-01T18:14:25;21.03;66.01
66119;DHT22;52912;48.564;9.302;2023-08-01T18:16:50;20.98;65.86
66119;DHT22;52912;48.564;9.302;2023-08-01T18:19:15;20.91;66.02
66119;DHT22;52912;48.564;9.302;2023-08-01T18:21:41;20.82;66.06
66119;DHT22;52912;48.564;9.302;2023-08-01T18:24:06;20.84;65.98
66119;DHT22;52912;48.564;9.302;2023-08-01T18:26:32;20.81;66.12
66119;DHT22;52912;48.564;9.302;2023-08-01T18:28:57;20.71;66.14
66119;DHT22;52912;48.564;9.302;2023-08-01T18:31:24;20.67;66.67
66119;DHT22;52912;48.564;9.302;2023-08-01T18:33:50;20.67;66.41
66119;DHT22;52912;48.564;9.302;2023-08-01T18:36:18;20.67;66.59
66119;DHT22;52912;48.564;9.302;2023-08-01T18:38:44;20.58;66.76
66119;DHT22;52912;48.564;9.302;2023-08-01T18:41:10;20.44;67.32
66119;DHT22;52912;48.564;9.302;2023-08-01T18:43:36;20.45;67.19
66119;DHT22;52912;48.564;9.302;2023-08-01T18:46:02;20.33;66.50
66119;DHT22;52912;48.564;9.302;2023-08-01T18:48:29;20.39;66.72
66119;DHT22;52912;48.564;9.302;2023-08-01T18:50:55;20.26;66.76
66119;DHT22;52912;48.564;9.302;2023-08-01T18:53:20;20.25;66.78
66119;DHT22;52912;48.564;9.302;2023-08-01T18:55:46;20.19;67.03
66119;DHT22;52912;48.564;9.302;2023-08-01T18:58:11;20.16;67.23
66119;DHT22;52912;48.564;9.302;2023-08-01T19:00:37;20.15;66.80
66119;DHT22;52912;48.564;9.302;2023-08-01T19:03:02;20.05;67.23
66119;DHT22;52912;48.564;9.302;2023-08-01T19:05:30;20.00;67.52
66119;DHT22;52912;48.564;9.302;2023-08-01T19:07:55;19.92;67.72
66119;DHT22;52912;48.564;9.302;2023-08-01T19:10:20;19.81;67.81
66119;DHT22;52912;48.564;9.302;2023-08-01T19:12:46;19.75;68.34
66119;DHT22;52912;48.564;9.302;2023-08-01T19:15:12;19.79;68.51
66119;DHT22;52912;48.564;9.302;2023-08-01T19:17:38;19.65;68.70
66119;DHT22;52912;48.564;9.302;2023-08-01T19:20:04;19.63;69.23
66119;DHT22;52912;48.564;9.302;2023-08-01T19:22:31;19.64;69.31
66119;DHT22;52912;48.564;9.302;2023-08-01T19:24:57;19.55;69.83
66119;DHT22;52912;48.564;9.302;2023-08-01T19:27:22;19.47;70.55
66119;DHT22;52912;48.564;9.302;2023-08-01T19:29:48;19.40;71.08
66119;DHT22;52912;48.564;9.302;2023-08-01T19:32:14;19.37;71.36
66119;DHT22;52912;48.564;9.302;2023-08-01T19:34:39;19.26;71.99
66119;DHT22;52912;48.564;9.302;2023-08-01T19:37:05;19.20;72.44
66119;DHT22;52912;48.564;9.302;2023-08-01T19:39:32;19.05;72.56
66119;DHT22;52912;48.564;9.302;2023-08-01T19:41:57;19.02;73.02
66119;DHT22;52912;48.564;9.302;2023-08-01T19:44:23;19.01;72.70
66119;DHT22;52912;48.564;9.302;2023-08-01T19:46:48;18.98;72.43
66119;DHT22;52912;48.564;9.302;2023-08-01T19:49:13;19.01;72.68
66119;DHT22;52912;48.564;9.302;2023-08-01T19:51:39;18.99;72.47
66119;DHT22;52912;48.564;9.302;2023-08-01T19:54:04;18.89;72.17
66119;DHT22;52912;48.564;9.302;2023-08-01T19:56:31;18.89;72.06
66119;DHT22;52912;48.564;9.302;2023-08-01T19:58:57;18.84;72.54
66119;DHT22;52912;48.564;9.302;2023-08-01T20:01:23;18.87;72.22
66119;DHT22;52912;48.564;9.302;2023-08-01T20:03:49;18.85;72.12
66119;DHT22;52912;48.564;9.302;2023-08-01T20:06:15;18.81;72.07
66119;DHT22;52912;48.564;9.302;2023-08-01T20:09:19;18.89;72.58
66119;DHT22;52912;48.564;9.302;2023-08-01T20:11:46;18.78;72.47
66119;DHT22;52912;48.564;9.302;2023-08-01T20:14:12;18.74;72.30
66119;DHT22;52912;48.564;9.302;2023-08-01T20:16:38;18.75;72.61
66119;DHT22;52912;48.564;9.302;2023-08-01T20:19:03;18.75;72.35
66119;DHT22;52912;48.564;9.302;2023-08-01T20:21:28;18.78;72.19
66119;DHT22;52912;48.564;9.302;2023-08-01T20:23:54;18.69;71.95
66119;DHT22;52912;48.564;9.302;2023-08-01T20:26:19;18.67;72.57
66119;DHT22;52912;48.564;9.302;2023-08-01T20:28:46;18.69;72.02
66119;DHT22;52912;48.564;9.302;2023-08-01T20:31:12;18.69;72.27
66119;DHT22;52912;48.564;9.302;2023-08-01T20:33:37;18.64;72.62
66119;DHT22;52912;48.564;9.302;2023-08-01T20:36:03;18.67;72.67
66119;DHT22;52912;48.564;9.302;2023-08-01T20:38:28;18.72;72.36
66119;DHT22;52912;48.564;9.302;2023-08-01T20:40:54;18.81;72.07
66119;DHT22;52912;48.564;9.302;2023-08-01T20:43:21;18.75;72.27
66119;DHT22;52912;48.564;9.302;2023-08-01T20:45:51;18.71;72.57
66119;DHT22;52912;48.564;9.302;2023-08-01T20:48:16;18.71;72.52
66119;DHT22;52912;48.564;9.302;2023-08-01T20:50:43;18.67;72.46